sensor_id;sensor_type;location;lat;lon;timestamp;temperature;humidity
46492;DHT22;32206;51.446;6.792;2022-12-18T00:01:43;-4.50;99.90
46492;DHT22;32206;51.446;6.792;2022-12-18T00:04:18;-4.50;99.90
46492;DHT22;32206;51.446;6.792;2022-12-18T00:06:45;-4.50;99.90
46492;DHT22;32206;51.446;6.792;2022-12-18T00:09:10;-4.40;99.90
46492;DHT22;32206;51.446;6.792;2022-12-18T00:11:36;-4.50;99.90
46492;DHT22;32206;51.446;6.792;2022-12-18T00:14:02;-4.50;99.90
46492;DHT22;32206;51.446;6.792;2022-12-18T00:16:28;-4.40;99.90
46492;DHT22;32206;51.446;6.792;2022-12-18T00:18:56;-4.30;99.90
46492;DHT22;32206;51.446;6.792;2022-12-18T00:21:22;-4.40;99.90
46492;DHT22;32206;51.446;6.792;2022-12-18T00:23:51;-4.30;99.90
46492;DHT22;32206;51.446;6.792;2022-12-18T00:26:22;-4.30;99.90
46492;DHT22;32206;51.446;6.792;2022-12-18T00:28:49;-4.30;99.90
46492;DHT22;32206;51.446;6.792;2022-12-18T00:31:18;-4.40;99.90
46492;DHT22;32206;51.446;6.792;2022-12-18T00:33:44;-4.40;99.90
46492;DHT22;32206;51.446;6.792;2022-12-18T00:38:37;-4.40;99.90
46492;DHT22;32206;51.446;6.792;2022-12-18T00:41:03;-4.40;99.90
46492;DHT22;32206;51.446;6.792;2022-12-18T00:43:28;-4.40;99.90
46492;DHT22;32206;51.446;6.792;2022-12-18T00:45:54;-4.40;99.90
46492;DHT22;32206;51.446;6.792;2022-12-18T00:48:20;-4.30;99.90
46492;DHT22;32206;51.446;6.792;2022-12-18T00:50:47;-4.30;99.90
46492;DHT22;32206;51.446;6.792;2022-12-18T00:53:13;-4.30;99.90
46492;DHT22;32206;51.446;6.792;2022-12-18T00:55:41;-4.30;99.90
46492;DHT22;32206;51.446;6.792;2022-12-18T00:58:08;-4.20;99.90
46492;DHT22;32206;51.446;6.792;2022-12-18T01:00:33;-4.30;99.90
46492;DHT22;32206;51.446;6.792;2022-12-18T01:02:59;-4.40;99.80
46492;DHT22;32206;51.446;6.792;2022-12-18T01:05:25;-4.50;99.60
46492;DHT22;32206;51.446;6.792;2022-12-18T01:07:51;-4.50;99.90
46492;DHT22;32206;51.446;6.792;2022-12-18T01:10:17;-4.50;99.90
46492;DHT22;32206;51.446;6.792;2022-12-18T01:12:42;-4.60;99.90
46492;DHT22;32206;51.446;6.792;2022-12-18T01:15:09;-4.70;99.90
46492;DHT22;32206;51.446;6.792;2022-12-18T01:17:35;-4.70;99.90
46492;DHT22;32206;51.446;6.792;2022-12-18T01:20:01;-4.80;99.70
46492;DHT22;32206;51.446;6.792;2022-12-18T01:22:26;-4.80;99.90
46492;DHT22;32206;51.446;6.792;2022-12-18T01:24:52;-4.80;99.90
46492;DHT22;32206;51.446;6.792;2022-12-18T01:27:18;-4.80;99.90
46492;DHT22;32206;51.446;6.792;2022-12-18T01:29:43;-4.90;99.90
46492;DHT22;32206;51.446;6.792;2022-12-18T01:32:09;-4.80;99.90
46492;DHT22;32206;51.446;6.792;2022-12-18T01:34:36;-4.70;99.90
46492;DHT22;32206;51.446;6.792;2022-12-18T01:37:04;-4.60;99.90
46492;DHT22;32206;51.446;6.792;2022-12-18T01:39:31;-4.60;99.90
46492;DHT22;32206;51.446;6.792;2022-12-18T01:41:58;-4.50;99.90
46492;DHT22;32206;51.446;6.792;2022-12-18T01:47:59;-4.40;99.50
46492;DHT22;32206;51.446;6.792;2022-12-18T01:50:52;-4.20;99.20
46492;DHT22;32206;51.446;6.792;2022-12-18T01:53:20;-4.30;98.80
46492;DHT22;32206;51.446;6.792;2022-12-18T01:55:52;-4.30;98.40
46492;DHT22;32206;51.446;6.792;2022-12-18T01:58:21;-4.30;98.40
46492;DHT22;32206;51.446;6.792;2022-12-18T02:00:48;-4.30;96.40
46492;DHT22;32206;51.446;6.792;2022-12-18T02:03:14;-4.40;97.30
46492;DHT22;32206;51.446;6.792;2022-12-18T02:06:05;-4.30;97.50
46492;DHT22;32206;51.446;6.792;2022-12-18T02:27:41;-3.90;97.30
46492;DHT22;32206;51.446;6.792;2022-12-18T02:30:10;-3.90;96.80
46492;DHT22;32206;51.446;6.792;2022-12-18T02:32:41;-3.80;96.70
46492;DHT22;32206;51.446;6.792;2022-12-18T02:35:15;-3.80;96.70
46492;DHT22;32206;51.446;6.792;2022-12-18T02:37:43;-3.80;96.70
46492;DHT22;32206;51.446;6.792;2022-12-18T02:40:11;-3.70;96.80
46492;DHT22;32206;51.446;6.792;2022-12-18T02:42:37;-3.70;96.60
46492;DHT22;32206;51.446;6.792;2022-12-18T02:45:03;-3.60;96.50
46492;DHT22;32206;51.446;6.792;2022-12-18T02:47:31;-3.60;96.20
46492;DHT22;32206;51.446;6.792;2022-12-18T03:00:01;-3.60;96.10
46492;DHT22;32206;51.446;6.792;2022-12-18T03:05:27;-3.50;96.00
46492;DHT22;32206;51.446;6.792;2022-12-18T03:10:30;-3.80;95.70
46492;DHT22;32206;51.446;6.792;2022-12-18T03:13:12;-3.50;96.40
46492;DHT22;32206;51.446;6.792;2022-12-18T03:15:45;-3.50;96.20
46492;DHT22;32206;51.446;6.792;2022-12-18T03:18:35;-3.50;96.00
46492;DHT22;32206;51.446;6.792;2022-12-18T03:21:05;-3.50;96.10
46492;DHT22;32206;51.446;6.792;2022-12-18T03:23:35;-3.50;96.20
46492;DHT22;32206;51.446;6.792;2022-12-18T03:26:08;-3.50;96.20
46492;DHT22;32206;51.446;6.792;2022-12-18T03:28:40;-3.50;96.10
46492;DHT22;32206;51.446;6.792;2022-12-18T03:31:10;-3.50;96.40
46492;DHT22;32206;51.446;6.792;2022-12-18T03:34:04;-3.50;96.60
46492;DHT22;32206;51.446;6.792;2022-12-18T03:36:31;-3.40;96.10
46492;DHT22;32206;51.446;6.792;2022-12-18T03:38:58;-3.30;96.10
46492;DHT22;32206;51.446;6.792;2022-12-18T03:41:38;-3.30;95.80
46492;DHT22;32206;51.446;6.792;2022-12-18T03:44:26;-3.20;95.90
46492;DHT22;32206;51.446;6.792;2022-12-18T03:47:14;-3.20;95.50
46492;DHT22;32206;51.446;6.792;2022-12-18T03:54:42;-3.00;93.80
46492;DHT22;32206;51.446;6.792;2022-12-18T03:57:21;-3.00;93.50
46492;DHT22;32206;51.446;6.792;2022-12-18T03:59:50;-2.90;93.30
46492;DHT22;32206;51.446;6.792;2022-12-18T04:02:18;-2.80;94.30
46492;DHT22;32206;51.446;6.792;2022-12-18T04:04:46;-2.80;92.30
46492;DHT22;32206;51.446;6.792;2022-12-18T04:07:13;-2.70;91.50
46492;DHT22;32206;51.446;6.792;2022-12-18T04:09:41;-2.70;91.20
46492;DHT22;32206;51.446;6.792;2022-12-18T04:12:08;-2.60;91.00
46492;DHT22;32206;51.446;6.792;2022-12-18T04:14:34;-2.70;90.10
46492;DHT22;32206;51.446;6.792;2022-12-18T04:17:01;-2.70;89.40
46492;DHT22;32206;51.446;6.792;2022-12-18T04:19:27;-2.70;90.20
46492;DHT22;32206;51.446;6.792;2022-12-18T04:21:53;-2.70;90.50
46492;DHT22;32206;51.446;6.792;2022-12-18T04:24:19;-2.70;90.40
46492;DHT22;32206;51.446;6.792;2022-12-18T04:26:45;-2.60;90.60
46492;DHT22;32206;51.446;6.792;2022-12-18T04:29:11;-2.60;88.30
46492;DHT22;32206;51.446;6.792;2022-12-18T04:31:37;-2.60;87.10
46492;DHT22;32206;51.446;6.792;2022-12-18T04:34:02;-2.60;87.70
46492;DHT22;32206;51.446;6.792;2022-12-18T04:36:28;-2.60;88.00
46492;DHT22;32206;51.446;6.792;2022-12-18T04:38:54;-2.60;86.40
46492;DHT22;32206;51.446;6.792;2022-12-18T04:41:20;-2.50;86.60
46492;DHT22;32206;51.446;6.792;2022-12-18T04:43:45;-2.50;85.60
46492;DHT22;32206;51.446;6.792;2022-12-18T04:46:14;-2.50;86.10
46492;DHT22;32206;51.446;6.792;2022-12-18T04:48:39;-2.50;86.20
46492;DHT22;32206;51.446;6.792;2022-12-18T04:51:06;-2.50;86.40
46492;DHT22;32206;51.446;6.792;2022-12-18T04:53:33;-2.50;85.90
46492;DHT22;32206;51.446;6.792;2022-12-18T04:56:10;-2.00;86.20
46492;DHT22;32206;51.446;6.792;2022-12-18T04:58:36;-2.50;85.70
46492;DHT22;32206;51.446;6.792;2022-12-18T05:01:02;-2.50;85.50
46492;DHT22;32206;51.446;6.792;2022-12-18T05:03:28;-2.50;85.10
46492;DHT22;32206;51.446;6.792;2022-12-18T05:05:54;-2.50;85.90
46492;DHT22;32206;51.446;6.792;2022-12-18T05:08:20;-2.50;86.10
46492;DHT22;32206;51.446;6.792;2022-12-18T05:10:46;-2.50;85.30
46492;DHT22;32206;51.446;6.792;2022-12-18T05:13:11;-2.40;86.90
46492;DHT22;32206;51.446;6.792;2022-12-18T05:15:37;-2.40;86.60
46492;DHT22;32206;51.446;6.792;2022-12-18T05:18:03;-2.50;85.40
46492;DHT22;32206;51.446;6.792;2022-12-18T05:20:29;-2.60;87.40
46492;DHT22;32206;51.446;6.792;2022-12-18T05:22:54;-2.60;88.10
46492;DHT22;32206;51.446;6.792;2022-12-18T05:25:21;-2.60;88.80
46492;DHT22;32206;51.446;6.792;2022-12-18T05:27:47;-2.60;90.10
46492;DHT22;32206;51.446;6.792;2022-12-18T05:30:13;-2.70;89.90
46492;DHT22;32206;51.446;6.792;2022-12-18T05:32:39;-2.80;90.30
46492;DHT22;32206;51.446;6.792;2022-12-18T05:35:07;-2.80;90.30
46492;DHT22;32206;51.446;6.792;2022-12-18T05:37:33;-2.90;90.50
46492;DHT22;32206;51.446;6.792;2022-12-18T05:39:59;-3.00;90.70
46492;DHT22;32206;51.446;6.792;2022-12-18T05:42:24;-3.10;91.10
46492;DHT22;32206;51.446;6.792;2022-12-18T05:44:50;-3.30;91.50
46492;DHT22;32206;51.446;6.792;2022-12-18T05:47:16;-3.40;92.20
46492;DHT22;32206;51.446;6.792;2022-12-18T05:49:41;-3.50;93.20
46492;DHT22;32206;51.446;6.792;2022-12-18T05:52:07;-3.60;91.80
46492;DHT22;32206;51.446;6.792;2022-12-18T05:54:33;-3.60;93.70
46492;DHT22;32206;51.446;6.792;2022-12-18T05:56:58;-3.70;93.70
46492;DHT22;32206;51.446;6.792;2022-12-18T05:59:24;-3.80;94.60
46492;DHT22;32206;51.446;6.792;2022-12-18T06:01:50;-3.50;94.60
46492;DHT22;32206;51.446;6.792;2022-12-18T06:04:15;-4.00;95.10
46492;DHT22;32206;51.446;6.792;2022-12-18T06:06:41;-4.00;95.70
46492;DHT22;32206;51.446;6.792;2022-12-18T06:09:07;-4.10;95.60
46492;DHT22;32206;51.446;6.792;2022-12-18T06:11:35;-4.10;95.90
46492;DHT22;32206;51.446;6.792;2022-12-18T06:14:03;-4.20;96.70
46492;DHT22;32206;51.446;6.792;2022-12-18T06:16:29;-3.90;96.90
46492;DHT22;32206;51.446;6.792;2022-12-18T06:19:00;-4.30;97.50
46492;DHT22;32206;51.446;6.792;2022-12-18T06:21:26;-4.40;97.60
46492;DHT22;32206;51.446;6.792;2022-12-18T06:23:52;-4.40;97.80
46492;DHT22;32206;51.446;6.792;2022-12-18T06:26:18;-4.50;97.80
46492;DHT22;32206;51.446;6.792;2022-12-18T06:28:44;-4.60;98.20
46492;DHT22;32206;51.446;6.792;2022-12-18T06:31:10;-4.60;98.20
46492;DHT22;32206;51.446;6.792;2022-12-18T06:33:36;-4.70;98.20
46492;DHT22;32206;51.446;6.792;2022-12-18T06:36:07;-4.70;98.70
46492;DHT22;32206;51.446;6.792;2022-12-18T06:38:34;-4.70;99.20
46492;DHT22;32206;51.446;6.792;2022-12-18T06:41:00;-4.70;99.40
46492;DHT22;32206;51.446;6.792;2022-12-18T06:43:26;-4.20;99.90
46492;DHT22;32206;51.446;6.792;2022-12-18T06:45:57;-4.70;99.80
46492;DHT22;32206;51.446;6.792;2022-12-18T06:48:25;-4.70;99.80
46492;DHT22;32206;51.446;6.792;2022-12-18T06:50:51;-4.70;99.00
46492;DHT22;32206;51.446;6.792;2022-12-18T06:53:16;-4.80;97.70
46492;DHT22;32206;51.446;6.792;2022-12-18T06:55:42;-4.90;96.90
46492;DHT22;32206;51.446;6.792;2022-12-18T06:58:08;-5.10;96.50
46492;DHT22;32206;51.446;6.792;2022-12-18T07:00:33;-5.10;95.80
46492;DHT22;32206;51.446;6.792;2022-12-18T07:02:59;-5.20;96.30
46492;DHT22;32206;51.446;6.792;2022-12-18T07:05:24;-5.20;96.50
46492;DHT22;32206;51.446;6.792;2022-12-18T07:07:50;-5.20;96.20
46492;DHT22;32206;51.446;6.792;2022-12-18T07:10:16;-5.30;95.80
46492;DHT22;32206;51.446;6.792;2022-12-18T07:12:41;-5.30;96.00
46492;DHT22;32206;51.446;6.792;2022-12-18T07:15:07;-5.40;95.90
46492;DHT22;32206;51.446;6.792;2022-12-18T07:17:33;-5.40;96.80
46492;DHT22;32206;51.446;6.792;2022-12-18T07:19:58;-5.50;96.90
46492;DHT22;32206;51.446;6.792;2022-12-18T07:22:25;-5.50;97.20
46492;DHT22;32206;51.446;6.792;2022-12-18T07:24:51;-5.50;97.40
46492;DHT22;32206;51.446;6.792;2022-12-18T07:27:16;-5.50;97.70
46492;DHT22;32206;51.446;6.792;2022-12-18T07:29:42;-5.60;97.40
46492;DHT22;32206;51.446;6.792;2022-12-18T07:32:08;-5.60;98.00
46492;DHT22;32206;51.446;6.792;2022-12-18T07:34:34;-5.50;98.20
46492;DHT22;32206;51.446;6.792;2022-12-18T07:36:59;-5.50;98.90
46492;DHT22;32206;51.446;6.792;2022-12-18T07:39:25;-5.50;99.30
46492;DHT22;32206;51.446;6.792;2022-12-18T07:41:51;-5.50;99.10
46492;DHT22;32206;51.446;6.792;2022-12-18T07:44:42;-5.50;99.10
46492;DHT22;32206;51.446;6.792;2022-12-18T07:47:08;-5.50;99.20
46492;DHT22;32206;51.446;6.792;2022-12-18T07:49:34;-5.60;98.60
46492;DHT22;32206;51.446;6.792;2022-12-18T07:51:59;-5.70;97.50
46492;DHT22;32206;51.446;6.792;2022-12-18T07:54:25;-5.80;97.50
46492;DHT22;32206;51.446;6.792;2022-12-18T07:56:51;-5.90;96.90
46492;DHT22;32206;51.446;6.792;2022-12-18T07:59:17;-5.90;97.30
46492;DHT22;32206;51.446;6.792;2022-12-18T08:01:43;-6.00;97.50
46492;DHT22;32206;51.446;6.792;2022-12-18T08:04:08;-5.90;98.30
46492;DHT22;32206;51.446;6.792;2022-12-18T08:06:34;-5.80;98.60
46492;DHT22;32206;51.446;6.792;2022-12-18T08:08:59;-5.80;98.70
46492;DHT22;32206;51.446;6.792;2022-12-18T08:11:27;-5.80;98.70
46492;DHT22;32206;51.446;6.792;2022-12-18T08:13:53;-5.80;99.10
46492;DHT22;32206;51.446;6.792;2022-12-18T08:16:20;-5.60;99.70
46492;DHT22;32206;51.446;6.792;2022-12-18T08:18:46;-5.50;99.90
46492;DHT22;32206;51.446;6.792;2022-12-18T08:23:39;-5.30;99.30
46492;DHT22;32206;51.446;6.792;2022-12-18T08:26:05;-5.30;98.80
46492;DHT22;32206;51.446;6.792;2022-12-18T08:28:31;-5.20;99.00
46492;DHT22;32206;51.446;6.792;2022-12-18T08:30:57;-5.30;98.80
46492;DHT22;32206;51.446;6.792;2022-12-18T08:33:22;-5.20;98.90
46492;DHT22;32206;51.446;6.792;2022-12-18T08:35:48;-5.20;98.70
46492;DHT22;32206;51.446;6.792;2022-12-18T08:38:14;-5.10;99.00
46492;DHT22;32206;51.446;6.792;2022-12-18T08:40:39;-5.10;98.80
46492;DHT22;32206;51.446;6.792;2022-12-18T08:43:05;-4.90;97.80
46492;DHT22;32206;51.446;6.792;2022-12-18T08:45:49;-4.90;97.90
46492;DHT22;32206;51.446;6.792;2022-12-18T08:48:14;-4.80;97.50
46492;DHT22;32206;51.446;6.792;2022-12-18T08:50:40;-4.80;97.40
46492;DHT22;32206;51.446;6.792;2022-12-18T08:53:06;-4.80;97.20
46492;DHT22;32206;51.446;6.792;2022-12-18T08:55:32;-4.70;96.60
46492;DHT22;32206;51.446;6.792;2022-12-18T08:57:57;-4.60;96.70
46492;DHT22;32206;51.446;6.792;2022-12-18T09:00:23;-4.50;97.00
46492;DHT22;32206;51.446;6.792;2022-12-18T09:02:49;-4.50;97.10
46492;DHT22;32206;51.446;6.792;2022-12-18T09:05:14;-4.00;97.50
46492;DHT22;32206;51.446;6.792;2022-12-18T09:07:40;-4.20;97.30
46492;DHT22;32206;51.446;6.792;2022-12-18T09:10:06;-4.10;97.40
46492;DHT22;32206;51.446;6.792;2022-12-18T09:12:31;-3.90;96.80
46492;DHT22;32206;51.446;6.792;2022-12-18T09:14:57;-3.80;96.70
46492;DHT22;32206;51.446;6.792;2022-12-18T09:17:23;-4.10;96.10
46492;DHT22;32206;51.446;6.792;2022-12-18T09:19:48;-3.50;95.50
46492;DHT22;32206;51.446;6.792;2022-12-18T09:22:14;-3.40;95.40
46492;DHT22;32206;51.446;6.792;2022-12-18T09:24:40;-3.20;93.90
46492;DHT22;32206;51.446;6.792;2022-12-18T09:27:06;-3.10;92.90
46492;DHT22;32206;51.446;6.792;2022-12-18T09:29:32;-2.70;92.90
46492;DHT22;32206;51.446;6.792;2022-12-18T09:31:58;-2.90;92.50
46492;DHT22;32206;51.446;6.792;2022-12-18T09:34:23;-2.70;91.40
46492;DHT22;32206;51.446;6.792;2022-12-18T09:36:49;-2.50;90.40
46492;DHT22;32206;51.446;6.792;2022-12-18T09:39:15;-2.30;87.80
46492;DHT22;32206;51.446;6.792;2022-12-18T09:46:45;-1.30;59.60
46492;DHT22;32206;51.446;6.792;2022-12-18T09:49:15;-1.40;47.30
46492;DHT22;32206;51.446;6.792;2022-12-18T09:51:52;-1.20;38.30
46492;DHT22;32206;51.446;6.792;2022-12-18T09:54:24;-1.00;30.20
46492;DHT22;32206;51.446;6.792;2022-12-18T09:56:51;-0.80;29.70
46492;DHT22;32206;51.446;6.792;2022-12-18T10:01:47;-0.40;1.00
46492;DHT22;32206;51.446;6.792;2022-12-18T10:04:13;-0.20;1.00
46492;DHT22;32206;51.446;6.792;2022-12-18T10:06:49;-0.10;99.90
46492;DHT22;32206;51.446;6.792;2022-12-18T10:09:37;0.10;99.90
46492;DHT22;32206;51.446;6.792;2022-12-18T10:12:29;0.20;1.00
46492;DHT22;32206;51.446;6.792;2022-12-18T10:15:15;0.40;1.00
46492;DHT22;32206;51.446;6.792;2022-12-18T10:20:24;0.70;1.00
46492;DHT22;32206;51.446;6.792;2022-12-18T10:28:07;0.90;99.90
46492;DHT22;32206;51.446;6.792;2022-12-18T10:30:33;1.00;99.90
46492;DHT22;32206;51.446;6.792;2022-12-18T10:33:02;1.10;99.90
46492;DHT22;32206;51.446;6.792;2022-12-18T10:35:28;1.20;1.00
46492;DHT22;32206;51.446;6.792;2022-12-18T10:40:59;1.30;99.90
46492;DHT22;32206;51.446;6.792;2022-12-18T10:43:26;1.40;1.00
46492;DHT22;32206;51.446;6.792;2022-12-18T10:46:00;1.50;24.30
46492;DHT22;32206;51.446;6.792;2022-12-18T10:48:27;1.60;99.90
46492;DHT22;32206;51.446;6.792;2022-12-18T10:50:53;1.60;99.90
46492;DHT22;32206;51.446;6.792;2022-12-18T10:53:24;1.70;61.80
46492;DHT22;32206;51.446;6.792;2022-12-18T10:55:53;1.70;69.10
46492;DHT22;32206;51.446;6.792;2022-12-18T10:58:33;2.50;1.00
46492;DHT22;32206;51.446;6.792;2022-12-18T11:01:03;1.80;99.90
46492;DHT22;32206;51.446;6.792;2022-12-18T11:06:07;1.90;99.90
46492;DHT22;32206;51.446;6.792;2022-12-18T11:08:33;1.90;99.90
46492;DHT22;32206;51.446;6.792;2022-12-18T11:10:59;1.90;99.90
46492;DHT22;32206;51.446;6.792;2022-12-18T11:13:28;1.90;99.90
46492;DHT22;32206;51.446;6.792;2022-12-18T11:15:54;2.30;99.90
46492;DHT22;32206;51.446;6.792;2022-12-18T11:18:26;2.00;99.90
46492;DHT22;32206;51.446;6.792;2022-12-18T11:21:05;2.00;99.90
46492;DHT22;32206;51.446;6.792;2022-12-18T11:23:31;2.00;99.90
46492;DHT22;32206;51.446;6.792;2022-12-18T11:26:01;2.10;99.90
46492;DHT22;32206;51.446;6.792;2022-12-18T11:31:26;2.10;87.70
46492;DHT22;32206;51.446;6.792;2022-12-18T11:36:45;2.20;99.90
46492;DHT22;32206;51.446;6.792;2022-12-18T11:39:36;2.20;30.00
46492;DHT22;32206;51.446;6.792;2022-12-18T11:42:16;2.30;10.50
46492;DHT22;32206;51.446;6.792;2022-12-18T11:44:57;2.20;1.00
46492;DHT22;32206;51.446;6.792;2022-12-18T11:50:17;2.20;60.50
46492;DHT22;32206;51.446;6.792;2022-12-18T11:52:44;2.10;23.90
46492;DHT22;32206;51.446;6.792;2022-12-18T11:55:15;2.10;18.40
46492;DHT22;32206;51.446;6.792;2022-12-18T12:00:27;2.20;16.00
46492;DHT22;32206;51.446;6.792;2022-12-18T12:03:18;2.30;1.00
46492;DHT22;32206;51.446;6.792;2022-12-18T12:08:43;2.20;22.40
46492;DHT22;32206;51.446;6.792;2022-12-18T12:14:28;2.30;58.20
46492;DHT22;32206;51.446;6.792;2022-12-18T12:16:59;2.30;99.90
46492;DHT22;32206;51.446;6.792;2022-12-18T12:22:50;2.30;99.90
46492;DHT22;32206;51.446;6.792;2022-12-18T12:30:54;2.50;1.00
46492;DHT22;32206;51.446;6.792;2022-12-18T12:33:38;2.20;1.00
46492;DHT22;32206;51.446;6.792;2022-12-18T12:36:17;2.20;1.00
46492;DHT22;32206;51.446;6.792;2022-12-18T12:38:55;2.10;40.40
46492;DHT22;32206;51.446;6.792;2022-12-18T12:41:25;2.10;12.30
46492;DHT22;32206;51.446;6.792;2022-12-18T12:44:19;2.10;51.40
46492;DHT22;32206;51.446;6.792;2022-12-18T12:46:47;2.10;1.00
46492;DHT22;32206;51.446;6.792;2022-12-18T12:49:18;2.10;20.50
46492;DHT22;32206;51.446;6.792;2022-12-18T12:51:53;2.10;56.00
46492;DHT22;32206;51.446;6.792;2022-12-18T12:54:24;2.10;95.30
46492;DHT22;32206;51.446;6.792;2022-12-18T12:57:20;2.10;14.20
46492;DHT22;32206;51.446;6.792;2022-12-18T13:08:09;2.00;99.90
46492;DHT22;32206;51.446;6.792;2022-12-18T13:10:39;2.10;86.40
46492;DHT22;32206;51.446;6.792;2022-12-18T13:13:09;1.90;94.70
46492;DHT22;32206;51.446;6.792;2022-12-18T13:15:47;1.90;99.90
46492;DHT22;32206;51.446;6.792;2022-12-18T13:18:14;1.90;99.90
46492;DHT22;32206;51.446;6.792;2022-12-18T13:21:01;1.90;99.90
46492;DHT22;32206;51.446;6.792;2022-12-18T13:23:28;1.90;99.90
46492;DHT22;32206;51.446;6.792;2022-12-18T13:31:02;1.90;99.90
46492;DHT22;32206;51.446;6.792;2022-12-18T13:33:37;1.90;99.90
46492;DHT22;32206;51.446;6.792;2022-12-18T13:39:51;1.70;99.90
46492;DHT22;32206;51.446;6.792;2022-12-18T13:46:56;1.70;99.90
46492;DHT22;32206;51.446;6.792;2022-12-18T13:49:40;1.70;99.90
46492;DHT22;32206;51.446;6.792;2022-12-18T13:52:27;1.70;99.90
46492;DHT22;32206;51.446;6.792;2022-12-18T13:54:59;1.60;99.90
46492;DHT22;32206;51.446;6.792;2022-12-18T13:57:26;1.60;99.90
46492;DHT22;32206;51.446;6.792;2022-12-18T13:59:52;1.60;99.90
46492;DHT22;32206;51.446;6.792;2022-12-18T14:02:22;1.60;99.90
46492;DHT22;32206;51.446;6.792;2022-12-18T14:04:49;1.60;99.90
46492;DHT22;32206;51.446;6.792;2022-12-18T14:07:19;1.60;99.90
46492;DHT22;32206;51.446;6.792;2022-12-18T14:09:56;1.60;99.90
46492;DHT22;32206;51.446;6.792;2022-12-18T14:12:28;1.70;99.90
46492;DHT22;32206;51.446;6.792;2022-12-18T14:15:33;1.60;99.90
46492;DHT22;32206;51.446;6.792;2022-12-18T14:20:35;1.60;1.00
46492;DHT22;32206;51.446;6.792;2022-12-18T14:23:01;1.60;99.90
46492;DHT22;32206;51.446;6.792;2022-12-18T14:25:28;1.70;99.90
46492;DHT22;32206;51.446;6.792;2022-12-18T14:28:13;1.60;99.90
46492;DHT22;32206;51.446;6.792;2022-12-18T14:30:44;1.50;99.90
46492;DHT22;32206;51.446;6.792;2022-12-18T14:33:11;1.50;99.90
46492;DHT22;32206;51.446;6.792;2022-12-18T14:35:39;1.40;99.90
46492;DHT22;32206;51.446;6.792;2022-12-18T14:38:27;1.50;99.90
46492;DHT22;32206;51.446;6.792;2022-12-18T14:40:54;1.50;99.90
46492;DHT22;32206;51.446;6.792;2022-12-18T14:43:23;1.50;99.90
46492;DHT22;32206;51.446;6.792;2022-12-18T14:45:50;1.40;99.90
46492;DHT22;32206;51.446;6.792;2022-12-18T14:48:24;1.40;99.90
46492;DHT22;32206;51.446;6.792;2022-12-18T14:51:01;1.40;99.90
46492;DHT22;32206;51.446;6.792;2022-12-18T14:53:35;1.00;99.90
46492;DHT22;32206;51.446;6.792;2022-12-18T14:56:03;1.40;99.90
46492;DHT22;32206;51.446;6.792;2022-12-18T14:58:35;1.40;99.90
46492;DHT22;32206;51.446;6.792;2022-12-18T15:01:01;1.30;99.90
46492;DHT22;32206;51.446;6.792;2022-12-18T15:03:26;1.70;99.90
46492;DHT22;32206;51.446;6.792;2022-12-18T15:05:52;1.30;99.90
46492;DHT22;32206;51.446;6.792;2022-12-18T15:08:38;1.30;99.90
46492;DHT22;32206;51.446;6.792;2022-12-18T15:11:22;1.30;99.90
46492;DHT22;32206;51.446;6.792;2022-12-18T15:13:49;1.30;99.90
46492;DHT22;32206;51.446;6.792;2022-12-18T15:16:14;1.40;99.90
46492;DHT22;32206;51.446;6.792;2022-12-18T15:18:42;1.40;99.90
46492;DHT22;32206;51.446;6.792;2022-12-18T15:21:17;1.40;99.90
46492;DHT22;32206;51.446;6.792;2022-12-18T15:26:09;1.30;99.90
46492;DHT22;32206;51.446;6.792;2022-12-18T15:33:38;1.30;1.00
46492;DHT22;32206;51.446;6.792;2022-12-18T15:36:15;1.30;1.00
46492;DHT22;32206;51.446;6.792;2022-12-18T15:38:49;1.20;1.00
46492;DHT22;32206;51.446;6.792;2022-12-18T15:41:19;1.20;1.00
46492;DHT22;32206;51.446;6.792;2022-12-18T15:43:47;1.30;99.90
46492;DHT22;32206;51.446;6.792;2022-12-18T15:46:15;1.20;1.00
46492;DHT22;32206;51.446;6.792;2022-12-18T15:48:44;1.30;1.00
46492;DHT22;32206;51.446;6.792;2022-12-18T15:53:51;1.10;1.00
46492;DHT22;32206;51.446;6.792;2022-12-18T15:56:19;1.20;1.00
46492;DHT22;32206;51.446;6.792;2022-12-18T15:59:14;1.20;1.00
46492;DHT22;32206;51.446;6.792;2022-12-18T16:01:41;1.50;99.90
46492;DHT22;32206;51.446;6.792;2022-12-18T16:04:12;1.20;99.90
46492;DHT22;32206;51.446;6.792;2022-12-18T16:06:39;1.10;99.90
46492;DHT22;32206;51.446;6.792;2022-12-18T16:09:06;1.10;99.90
46492;DHT22;32206;51.446;6.792;2022-12-18T16:11:34;1.10;1.00
46492;DHT22;32206;51.446;6.792;2022-12-18T16:14:17;1.00;95.90
46492;DHT22;32206;51.446;6.792;2022-12-18T16:16:47;1.00;99.90
46492;DHT22;32206;51.446;6.792;2022-12-18T16:19:14;1.00;99.90
46492;DHT22;32206;51.446;6.792;2022-12-18T16:21:39;0.90;1.00
46492;DHT22;32206;51.446;6.792;2022-12-18T16:24:05;0.90;1.00
46492;DHT22;32206;51.446;6.792;2022-12-18T16:26:31;0.90;99.90
46492;DHT22;32206;51.446;6.792;2022-12-18T16:28:56;0.90;99.90
46492;DHT22;32206;51.446;6.792;2022-12-18T16:31:22;0.90;99.90
46492;DHT22;32206;51.446;6.792;2022-12-18T16:33:47;0.80;4.40
46492;DHT22;32206;51.446;6.792;2022-12-18T16:36:13;0.80;1.00
46492;DHT22;32206;51.446;6.792;2022-12-18T16:38:39;0.70;99.90
46492;DHT22;32206;51.446;6.792;2022-12-18T16:41:19;0.80;1.00
46492;DHT22;32206;51.446;6.792;2022-12-18T16:43:57;0.80;1.00
46492;DHT22;32206;51.446;6.792;2022-12-18T16:46:23;0.70;99.90
46492;DHT22;32206;51.446;6.792;2022-12-18T16:48:49;1.10;33.40
46492;DHT22;32206;51.446;6.792;2022-12-18T16:51:17;0.70;99.90
46492;DHT22;32206;51.446;6.792;2022-12-18T16:53:43;0.70;1.00
46492;DHT22;32206;51.446;6.792;2022-12-18T16:56:15;0.60;99.90
46492;DHT22;32206;51.446;6.792;2022-12-18T16:58:41;0.70;1.00
46492;DHT22;32206;51.446;6.792;2022-12-18T17:01:08;0.70;1.00
46492;DHT22;32206;51.446;6.792;2022-12-18T17:03:34;0.70;1.00
46492;DHT22;32206;51.446;6.792;2022-12-18T17:06:06;1.00;44.00
46492;DHT22;32206;51.446;6.792;2022-12-18T17:08:32;0.60;99.90
46492;DHT22;32206;51.446;6.792;2022-12-18T17:11:07;0.60;99.90
46492;DHT22;32206;51.446;6.792;2022-12-18T17:13:33;0.60;99.90
46492;DHT22;32206;51.446;6.792;2022-12-18T17:16:04;0.60;99.90
46492;DHT22;32206;51.446;6.792;2022-12-18T17:18:31;0.60;99.90
46492;DHT22;32206;51.446;6.792;2022-12-18T17:21:00;0.60;99.90
46492;DHT22;32206;51.446;6.792;2022-12-18T17:23:27;0.80;99.90
46492;DHT22;32206;51.446;6.792;2022-12-18T17:25:57;0.50;1.00
46492;DHT22;32206;51.446;6.792;2022-12-18T17:28:24;0.50;1.00
46492;DHT22;32206;51.446;6.792;2022-12-18T17:30:53;0.50;1.00
46492;DHT22;32206;51.446;6.792;2022-12-18T17:33:20;0.50;1.00
46492;DHT22;32206;51.446;6.792;2022-12-18T17:35:46;0.50;1.00
46492;DHT22;32206;51.446;6.792;2022-12-18T17:38:12;0.50;1.00
46492;DHT22;32206;51.446;6.792;2022-12-18T17:40:38;0.50;1.00
46492;DHT22;32206;51.446;6.792;2022-12-18T17:43:06;0.50;1.00
46492;DHT22;32206;51.446;6.792;2022-12-18T17:45:37;0.90;1.00
46492;DHT22;32206;51.446;6.792;2022-12-18T17:48:04;0.50;1.00
46492;DHT22;32206;51.446;6.792;2022-12-18T17:50:34;0.50;1.00
46492;DHT22;32206;51.446;6.792;2022-12-18T17:53:00;0.50;1.00
46492;DHT22;32206;51.446;6.792;2022-12-18T17:55:27;0.40;1.00
46492;DHT22;32206;51.446;6.792;2022-12-18T17:57:53;0.40;1.00
46492;DHT22;32206;51.446;6.792;2022-12-18T18:00:19;0.40;1.00
46492;DHT22;32206;51.446;6.792;2022-12-18T18:02:44;0.30;1.00